Time;durP1;ratioP1;P1;durP2;ratioP2;P2;SDS_P1;SDS_P2;PMS_P1;PMS_P2;Temp;Humidity;BMP_temperature;BMP_pressure;BME280_temperature;BME280_humidity;BME280_pressure;Samples;Min_cycle;Max_cycle;Signal;HPM_P1;HPM_P2
2024/01/08 00:01:57;;;;;;;0.00;0.00;;;26.80;49.80;;;;;;5092020;28;20202;-41
2024/01/08 00:04:28;;;;;;;0.00;0.00;;;26.80;49.70;;;;;;5091893;28;20198;-41
2024/01/08 00:06:59;;;;;;;0.00;0.00;;;26.80;49.80;;;;;;5091421;28;20205;-44
2024/01/08 00:09:32;;;;;;;0.00;0.00;;;26.90;49.90;;;;;;5089482;28;20206;-42
2024/01/08 00:12:02;;;;;;;0.00;0.00;;;26.90;49.80;;;;;;5091521;28;20291;-42
2024/01/08 00:14:33;;;;;;;0.00;0.00;;;27.00;49.70;;;;;;5092405;28;20832;-42
2024/01/08 00:17:04;;;;;;;0.00;0.00;;;27.00;49.70;;;;;;5092000;28;20201;-42
2024/01/08 00:19:34;;;;;;;0.00;0.00;;;27.00;49.70;;;;;;5091549;28;20570;-42
2024/01/08 00:22:05;;;;;;;0.00;0.00;;;27.10;49.70;;;;;;5091742;28;20575;-42
2024/01/08 00:24:38;;;;;;;0.00;0.00;;;27.20;49.70;;;;;;5091554;28;20202;-42
2024/01/08 00:27:09;;;;;;;0.00;0.00;;;27.20;49.60;;;;;;5091898;28;20194;-43
2024/01/08 00:29:39;;;;;;;0.00;0.00;;;27.20;49.40;;;;;;5091880;28;20210;-43
2024/01/08 00:32:10;;;;;;;0.00;0.00;;;27.20;49.30;;;;;;5091438;28;20240;-42
2024/01/08 00:34:42;;;;;;;0.00;0.00;;;27.30;49.30;;;;;;5091582;28;20205;-42
2024/01/08 00:37:12;;;;;;;0.00;0.00;;;27.30;49.20;;;;;;5087682;28;20202;-42
2024/01/08 00:39:45;;;;;;;0.00;0.00;;;27.40;49.00;;;;;;5084074;28;20562;-44
2024/01/08 00:42:16;;;;;;;0.00;0.00;;;27.40;49.00;;;;;;5086758;28;20681;-42
2024/01/08 00:44:46;;;;;;;0.00;0.00;;;27.50;49.00;;;;;;5087537;28;20198;-45
2024/01/08 00:47:17;;;;;;;0.00;0.00;;;27.50;48.90;;;;;;5087804;28;20638;-42
2024/01/08 00:49:48;;;;;;;0.00;0.00;;;27.60;49.60;;;;;;5087644;28;20217;-41
2024/01/08 00:52:18;;;;;;;0.00;0.00;;;27.60;49.00;;;;;;5087615;28;20697;-43
2024/01/08 00:54:51;;;;;;;0.00;0.00;;;27.60;48.90;;;;;;5091030;28;20194;-44
2024/01/08 00:57:22;;;;;;;0.00;0.00;;;27.60;48.90;;;;;;5091715;28;20201;-43
2024/01/08 00:59:52;;;;;;;0.00;0.00;;;27.60;48.80;;;;;;5091497;28;20700;-46
2024/01/08 01:02:23;;;;;;;0.00;0.00;;;27.60;48.70;;;;;;5091093;28;20690;-46
2024/01/08 01:04:54;;;;;;;0.00;0.00;;;27.70;48.60;;;;;;5091309;28;20194;-44
2024/01/08 01:07:25;;;;;;;0.00;0.00;;;27.80;49.30;;;;;;5091039;28;20202;-43
2024/01/08 01:09:57;;;;;;;0.00;0.00;;;27.80;48.50;;;;;;5090623;28;20617;-41
2024/01/08 01:12:28;;;;;;;0.00;0.00;;;27.80;48.30;;;;;;5091593;28;20239;-44
2024/01/08 01:14:59;;;;;;;0.00;0.00;;;27.80;48.30;;;;;;5102003;28;20194;-44
2024/01/08 01:17:30;;;;;;;0.00;0.00;;;27.90;48.30;;;;;;5110731;28;20580;-42
2024/01/08 01:20:00;;;;;;;0.00;0.00;;;27.90;48.20;;;;;;5101575;28;20218;-42
2024/01/08 01:22:31;;;;;;;0.00;0.00;;;28.00;48.10;;;;;;5090655;28;20565;-44
2024/01/08 01:25:04;;;;;;;0.00;0.00;;;28.00;48.00;;;;;;5091207;28;20201;-43
2024/01/08 01:27:34;;;;;;;0.00;0.00;;;28.00;47.90;;;;;;5090285;28;20206;-42
2024/01/08 01:30:05;;;;;;;0.00;0.00;;;28.10;48.00;;;;;;5091031;28;20693;-43
2024/01/08 01:32:36;;;;;;;0.00;0.00;;;28.10;48.20;;;;;;5090906;28;20229;-44
2024/01/08 01:35:08;;;;;;;0.00;0.00;;;28.10;48.20;;;;;;5091829;28;20202;-44
2024/01/08 01:37:41;;;;;;;0.00;0.00;;;28.10;48.00;;;;;;5090782;28;20269;-46
2024/01/08 01:40:15;;;;;;;0.00;0.00;;;28.10;48.10;;;;;;5091032;28;20294;-42
2024/01/08 01:42:48;;;;;;;0.00;0.00;;;28.20;48.30;;;;;;5089883;28;20202;-46
2024/01/08 01:45:19;;;;;;;0.00;0.00;;;28.20;48.40;;;;;;5090236;28;20198;-46
2024/01/08 01:47:50;;;;;;;0.00;0.00;;;28.20;48.10;;;;;;5090043;28;20193;-46
2024/01/08 01:50:21;;;;;;;0.00;0.00;;;28.30;48.10;;;;;;5089397;28;20631;-44
2024/01/08 01:52:53;;;;;;;0.00;0.00;;;28.30;48.00;;;;;;5091058;28;20218;-47
2024/01/08 01:55:26;;;;;;;0.00;0.00;;;28.30;48.00;;;;;;5101780;28;20190;-44
2024/01/08 01:57:57;;;;;;;0.00;0.00;;;28.40;48.10;;;;;;5109065;28;20924;-45
2024/01/08 02:00:28;;;;;;;0.00;0.00;;;28.40;47.90;;;;;;5089404;28;20214;-45
2024/01/08 02:02:58;;;;;;;0.00;0.00;;;28.40;47.80;;;;;;5089663;28;20285;-44
2024/01/08 02:05:30;;;;;;;0.00;0.00;;;28.40;47.70;;;;;;5087690;28;20646;-43
2024/01/08 02:08:02;;;;;;;0.00;0.00;;;28.50;47.90;;;;;;5090048;28;20206;-45
2024/01/08 02:10:34;;;;;;;0.00;0.00;;;28.60;47.90;;;;;;5080965;28;20214;-43
2024/01/08 02:13:05;;;;;;;0.00;0.00;;;28.60;47.90;;;;;;5078665;28;20292;-43
2024/01/08 02:15:36;;;;;;;0.00;0.00;;;28.60;47.90;;;;;;5090508;28;20198;-42
2024/01/08 02:18:07;;;;;;;0.00;0.00;;;28.70;48.00;;;;;;5090192;28;20658;-45
2024/01/08 02:20:38;;;;;;;0.00;0.00;;;28.70;48.00;;;;;;5090330;28;20226;-45
2024/01/08 02:23:10;;;;;;;0.00;0.00;;;28.80;48.20;;;;;;5090297;28;20206;-44
2024/01/08 02:25:41;;;;;;;0.00;0.00;;;28.80;48.20;;;;;;5090387;28;20213;-45
2024/01/08 02:28:12;;;;;;;0.00;0.00;;;28.90;48.30;;;;;;5089837;28;20198;-43
2024/01/08 02:30:43;;;;;;;0.00;0.00;;;28.90;48.30;;;;;;5089892;28;20694;-44
2024/01/08 02:33:14;;;;;;;0.00;0.00;;;28.90;48.40;;;;;;5069282;28;20227;-44
2024/01/08 02:35:44;;;;;;;0.00;0.00;;;28.90;48.50;;;;;;5081434;28;20198;-45
2024/01/08 02:38:17;;;;;;;0.00;0.00;;;29.00;48.60;;;;;;5089370;28;20198;-44
2024/01/08 02:40:48;;;;;;;0.00;0.00;;;29.00;48.60;;;;;;5089024;28;20222;-44
2024/01/08 02:43:18;;;;;;;0.00;0.00;;;29.00;48.60;;;;;;5089715;28;20675;-46
2024/01/08 02:45:49;;;;;;;0.00;0.00;;;29.10;48.80;;;;;;5090179;28;20194;-44
2024/01/08 02:48:20;;;;;;;0.00;0.00;;;29.10;48.70;;;;;;5088983;28;20201;-46
2024/01/08 02:50:50;;;;;;;0.00;0.00;;;29.10;48.80;;;;;;5089978;28;20210;-44
2024/01/08 02:53:23;;;;;;;0.00;0.00;;;29.20;48.80;;;;;;5089770;28;20230;-48
2024/01/08 02:55:54;;;;;;;0.00;0.00;;;29.20;48.70;;;;;;5089031;28;20194;-45
2024/01/08 02:58:24;;;;;;;0.00;0.00;;;29.30;48.90;;;;;;5089184;28;20194;-45
2024/01/08 03:00:55;;;;;;;0.00;0.00;;;29.30;48.90;;;;;;5089091;28;20589;-46
2024/01/08 03:03:26;;;;;;;0.00;0.00;;;29.30;48.80;;;;;;5088502;28;20202;-47
2024/01/08 03:05:57;;;;;;;0.00;0.00;;;29.40;48.80;;;;;;5089432;28;20190;-44
2024/01/08 03:08:29;;;;;;;0.00;0.00;;;29.40;48.90;;;;;;5088484;28;20205;-45
2024/01/08 03:11:00;;;;;;;0.00;0.00;;;29.50;49.00;;;;;;5089416;28;20225;-46
2024/01/08 03:13:31;;;;;;;0.00;0.00;;;29.50;48.70;;;;;;5095329;28;20232;-44
2024/01/08 03:16:02;;;;;;;0.00;0.00;;;29.50;49.30;;;;;;5108882;28;20207;-42
2024/01/08 03:18:33;;;;;;;0.00;0.00;;;29.60;48.80;;;;;;5091322;28;20646;-46
2024/01/08 03:21:03;;;;;;;0.00;0.00;;;29.60;48.80;;;;;;5091683;28;20206;-42
2024/01/08 03:23:37;;;;;;;0.00;0.00;;;29.60;48.80;;;;;;5092526;28;20205;-41
2024/01/08 03:26:08;;;;;;;0.00;0.00;;;29.70;48.90;;;;;;5092789;28;20190;-42
2024/01/08 03:28:39;;;;;;;0.00;0.00;;;29.70;48.90;;;;;;5121126;22;20230;-46
2024/01/08 03:31:10;;;;;;;0.00;0.00;;;29.70;48.90;;;;;;5032135;28;20196;-48
2024/01/08 03:33:40;;;;;;;0.00;0.00;;;29.80;49.00;;;;;;5031013;28;20231;-46
2024/01/08 03:36:13;;;;;;;0.00;0.00;;;29.80;49.00;;;;;;5032068;28;20203;-45
2024/01/08 03:38:45;;;;;;;0.00;0.00;;;29.80;49.00;;;;;;5031980;28;20200;-45
2024/01/08 03:41:17;;;;;;;0.00;0.00;;;29.80;48.90;;;;;;5032040;28;20222;-45
2024/01/08 03:43:48;;;;;;;0.00;0.00;;;29.80;48.90;;;;;;5032376;28;20569;-45
2024/01/08 03:46:19;;;;;;;0.00;0.00;;;29.90;49.00;;;;;;5032227;28;20196;-48
2024/01/08 03:48:49;;;;;;;0.00;0.00;;;29.90;48.90;;;;;;5031380;28;20580;-46
2024/01/08 03:51:20;;;;;;;0.00;0.00;;;29.90;48.80;;;;;;5034399;28;20203;-46
2024/01/08 03:53:53;;;;;;;0.00;0.00;;;29.90;48.60;;;;;;5049836;28;20219;-45
2024/01/08 03:56:23;;;;;;;0.00;0.00;;;30.00;48.50;;;;;;5051240;28;20199;-47
2024/01/08 03:58:54;;;;;;;0.00;0.00;;;30.00;48.40;;;;;;5051619;28;20192;-45
2024/01/08 04:01:25;;;;;;;0.00;0.00;;;30.00;48.80;;;;;;5051131;28;20213;-46
2024/01/08 04:03:55;;;;;;;0.00;0.00;;;30.00;48.30;;;;;;5029430;28;20207;-46
2024/01/08 04:06:26;;;;;;;0.00;0.00;;;30.00;48.10;;;;;;5031425;28;20192;-46
2024/01/08 04:08:59;;;;;;;0.00;0.00;;;30.10;48.10;;;;;;5030228;28;20199;-45
2024/01/08 04:11:29;;;;;;;0.00;0.00;;;30.10;48.20;;;;;;5031187;28;20795;-46
2024/01/08 04:14:01;;;;;;;0.00;0.00;;;30.10;48.20;;;;;;5031384;28;20250;-46
2024/01/08 04:16:32;;;;;;;0.00;0.00;;;30.10;48.10;;;;;;5030557;28;20196;-46
2024/01/08 04:19:02;;;;;;;0.00;0.00;;;30.10;48.00;;;;;;5030887;28;20207;-45
2024/01/08 04:21:33;;;;;;;0.00;0.00;;;30.10;48.00;;;;;;5028620;28;20200;-45
2024/01/08 04:24:06;;;;;;;0.00;0.00;;;30.20;48.10;;;;;;5031455;28;20204;-46
2024/01/08 04:26:36;;;;;;;0.00;0.00;;;30.20;48.20;;;;;;5031454;28;20196;-48
2024/01/08 04:29:08;;;;;;;0.00;0.00;;;30.20;48.10;;;;;;5075894;22;20224;-45
2024/01/08 04:31:38;;;;;;;0.00;0.00;;;30.20;48.10;;;;;;5132092;27;20216;-42
2024/01/08 04:34:09;;;;;;;0.00;0.00;;;30.20;48.20;;;;;;5132353;28;20226;-43
2024/01/08 04:36:44;;;;;;;0.00;0.00;;;30.20;48.30;;;;;;5132327;28;20196;-43
2024/01/08 04:39:16;;;;;;;0.00;0.00;;;30.20;48.20;;;;;;5111697;28;20680;-48
2024/01/08 04:41:47;;;;;;;0.00;0.00;;;30.20;48.20;;;;;;5111776;28;20671;-45
2024/01/08 04:44:18;;;;;;;0.00;0.00;;;30.20;48.20;;;;;;5111729;28;20189;-43
2024/01/08 04:46:48;;;;;;;0.00;0.00;;;30.20;48.20;;;;;;5111290;28;20574;-45
2024/01/08 04:49:21;;;;;;;0.00;0.00;;;30.20;48.20;;;;;;5111513;28;20235;-46
2024/01/08 04:51:52;;;;;;;0.00;0.00;;;30.20;48.20;;;;;;5111471;28;20189;-47
2024/01/08 04:54:24;;;;;;;0.00;0.00;;;30.30;48.20;;;;;;5111403;28;20352;-48
2024/01/08 04:56:57;;;;;;;0.00;0.00;;;30.20;48.10;;;;;;5111575;28;20204;-46
2024/01/08 04:59:27;;;;;;;0.00;0.00;;;30.30;48.10;;;;;;5111834;28;20213;-45
2024/01/08 05:01:58;;;;;;;0.00;0.00;;;30.30;48.10;;;;;;5120265;28;20711;-45
2024/01/08 05:04:30;;;;;;;0.00;0.00;;;30.30;48.10;;;;;;5132228;28;20199;-45
2024/01/08 05:07:00;;;;;;;0.00;0.00;;;30.30;48.00;;;;;;5134343;27;20193;-45
2024/01/08 05:09:33;;;;;;;0.00;0.00;;;30.30;47.90;;;;;;5152781;27;20557;-43
2024/01/08 05:12:04;;;;;;;0.00;0.00;;;30.30;47.90;;;;;;5152543;27;20200;-48
2024/01/08 05:14:34;;;;;;;0.00;0.00;;;30.30;47.80;;;;;;5152153;27;20230;-41
2024/01/08 05:17:05;;;;;;;0.00;0.00;;;30.30;47.80;;;;;;5150864;27;20192;-43
2024/01/08 05:19:36;;;;;;;0.00;0.00;;;30.30;47.80;;;;;;5113178;28;20672;-43
2024/01/08 05:22:07;;;;;;;0.00;0.00;;;30.30;47.80;;;;;;5110381;28;20192;-43
2024/01/08 05:24:40;;;;;;;0.00;0.00;;;30.30;47.90;;;;;;5110750;28;20194;-43
2024/01/08 05:27:11;;;;;;;0.00;0.00;;;30.30;47.90;;;;;;5111064;28;20204;-44
2024/01/08 05:29:41;;;;;;;0.00;0.00;;;30.20;47.80;;;;;;5111894;28;20228;-45
2024/01/08 05:32:12;;;;;;;0.00;0.00;;;30.30;47.90;;;;;;5110449;28;20198;-45
2024/01/08 05:34:43;;;;;;;0.00;0.00;;;30.20;47.90;;;;;;5111237;28;20293;-45
2024/01/08 05:37:14;;;;;;;0.00;0.00;;;30.30;47.90;;;;;;5121041;27;20192;-45
2024/01/08 05:39:46;;;;;;;0.00;0.00;;;30.30;47.90;;;;;;5154026;27;20219;-42
2024/01/08 05:42:17;;;;;;;0.00;0.00;;;30.30;47.90;;;;;;5156331;27;20188;-43
2024/01/08 05:44:48;;;;;;;0.00;0.00;;;30.20;47.90;;;;;;5139524;27;20188;-44
2024/01/08 05:47:19;;;;;;;0.00;0.00;;;30.30;48.00;;;;;;5134749;27;20584;-45
2024/01/08 05:49:49;;;;;;;0.00;0.00;;;30.30;48.00;;;;;;5135047;27;20213;-42
2024/01/08 05:52:20;;;;;;;0.00;0.00;;;30.30;47.90;;;;;;5135024;27;20193;-45
2024/01/08 05:54:53;;;;;;;0.00;0.00;;;30.30;47.90;;;;;;5135154;27;20220;-43
2024/01/08 05:57:24;;;;;;;0.00;0.00;;;30.30;47.90;;;;;;5135214;27;20238;-45
2024/01/08 05:59:54;;;;;;;0.00;0.00;;;30.30;47.90;;;;;;5135541;27;20588;-46
2024/01/08 06:02:25;;;;;;;0.00;0.00;;;30.30;47.90;;;;;;5134008;27;20715;-43
2024/01/08 06:04:56;;;;;;;0.00;0.00;;;30.30;47.90;;;;;;5134931;27;20208;-46
2024/01/08 06:07:27;;;;;;;0.00;0.00;;;30.30;47.80;;;;;;5141464;27;20199;-43
2024/01/08 06:09:58;;;;;;;0.00;0.00;;;30.30;47.90;;;;;;5155058;27;20293;-43
2024/01/08 06:12:29;;;;;;;0.00;0.00;;;30.30;47.90;;;;;;5154991;27;20625;-42
2024/01/08 06:15:00;;;;;;;0.00;0.00;;;30.30;47.90;;;;;;5155007;27;20223;-43
2024/01/08 06:17:30;;;;;;;0.00;0.00;;;30.30;47.80;;;;;;5155362;27;20200;-44
2024/01/08 06:20:01;;;;;;;0.00;0.00;;;30.30;47.90;;;;;;5155447;27;20698;-43
2024/01/08 06:22:32;;;;;;;0.00;0.00;;;30.30;47.80;;;;;;5154762;27;20203;-45
2024/01/08 06:25:04;;;;;;;0.00;0.00;;;30.30;47.80;;;;;;5155362;27;20196;-42
2024/01/08 06:27:35;;;;;;;0.00;0.00;;;30.20;47.80;;;;;;5140148;27;20185;-43
2024/01/08 06:30:06;;;;;;;0.00;0.00;;;30.30;47.80;;;;;;5113717;28;20696;-43
2024/01/08 06:32:37;;;;;;;0.00;0.00;;;30.30;47.90;;;;;;5114241;28;20677;-42
2024/01/08 06:35:08;;;;;;;0.00;0.00;;;30.30;47.80;;;;;;5114037;28;20225;-45
2024/01/08 06:37:39;;;;;;;0.00;0.00;;;30.30;47.80;;;;;;5129925;27;20195;-45
2024/01/08 06:40:12;;;;;;;0.00;0.00;;;30.30;47.80;;;;;;5154480;27;20722;-44
2024/01/08 06:42:43;;;;;;;0.00;0.00;;;30.30;47.80;;;;;;5154824;27;20649;-45
2024/01/08 06:45:14;;;;;;;0.00;0.00;;;30.30;47.80;;;;;;5154276;27;20199;-45
2024/01/08 06:47:44;;;;;;;0.00;0.00;;;30.30;47.80;;;;;;5154958;27;20660;-44
2024/01/08 06:50:15;;;;;;;0.00;0.00;;;30.30;47.70;;;;;;5154468;27;20212;-43
2024/01/08 06:52:46;;;;;;;0.00;0.00;;;30.30;47.70;;;;;;5153951;27;20313;-45
2024/01/08 06:55:19;;;;;;;0.00;0.00;;;30.30;47.70;;;;;;5147682;27;20675;-45
2024/01/08 06:57:52;;;;;;;0.00;0.00;;;30.30;47.70;;;;;;5132997;27;20722;-45
2024/01/08 07:00:25;;;;;;;0.00;0.00;;;30.30;47.70;;;;;;5132854;27;20281;-45
2024/01/08 07:02:56;;;;;;;0.00;0.00;;;30.30;47.60;;;;;;5134422;27;20226;-45
2024/01/08 07:05:27;;;;;;;0.00;0.00;;;30.30;47.60;;;;;;5133699;27;20195;-44
2024/01/08 07:07:59;;;;;;;0.00;0.00;;;30.30;47.50;;;;;;5144572;27;20192;-43
2024/01/08 07:10:33;;;;;;;0.00;0.00;;;30.30;47.50;;;;;;5153979;27;20247;-47
2024/01/08 07:13:03;;;;;;;0.00;0.00;;;30.20;47.40;;;;;;5153627;27;20763;-44
2024/01/08 07:15:41;;;;;;;0.00;0.00;;;30.20;47.40;;;;;;5153068;27;20230;-46
2024/01/08 07:18:12;;;;;;;0.00;0.00;;;30.20;47.40;;;;;;5114952;27;20653;-41
2024/01/08 07:20:44;;;;;;;0.00;0.00;;;30.20;47.40;;;;;;5113109;28;20221;-41
2024/01/08 07:23:15;;;;;;;0.00;0.00;;;30.20;47.50;;;;;;5112994;28;20640;-41
2024/01/08 07:25:48;;;;;;;0.00;0.00;;;30.20;47.50;;;;;;5112904;28;20232;-40
2024/01/08 07:30:49;;;;;;;0.00;0.00;;;30.10;47.50;;;;;;5089849;28;20278;-47
2024/01/08 07:33:19;;;;;;;0.00;0.00;;;30.10;47.50;;;;;;5092467;28;20194;-51
2024/01/08 07:35:50;;;;;;;0.00;0.00;;;30.10;47.50;;;;;;5092548;28;20218;-49
2024/01/08 07:38:22;;;;;;;0.00;0.00;;;30.10;47.50;;;;;;5091677;28;20204;-49
2024/01/08 07:40:54;;;;;;;0.00;0.00;;;30.10;47.50;;;;;;5091825;28;20214;-48
2024/01/08 07:43:25;;;;;;;0.00;0.00;;;30.10;47.40;;;;;;5091896;28;20202;-47
2024/01/08 07:45:56;;;;;;;0.00;0.00;;;30.10;47.30;;;;;;5091927;28;20795;-47
2024/01/08 07:48:26;;;;;;;0.00;0.00;;;30.10;47.20;;;;;;5091782;28;20194;-46
2024/01/08 07:50:57;;;;;;;0.00;0.00;;;30.00;46.90;;;;;;5090370;28;20218;-48
2024/01/08 07:53:29;;;;;;;0.00;0.00;;;30.00;46.70;;;;;;5091762;28;20524;-47
2024/01/08 07:56:02;;;;;;;0.00;0.00;;;30.00;46.90;;;;;;5091928;28;20229;-48
2024/01/08 07:58:33;;;;;;;0.00;0.00;;;30.00;45.90;;;;;;5091956;28;20193;-48
2024/01/08 08:01:04;;;;;;;0.00;0.00;;;29.90;45.60;;;;;;5091651;28;20214;-47
2024/01/08 08:03:35;;;;;;;0.00;0.00;;;29.90;45.30;;;;;;5091928;28;20208;-45
2024/01/08 08:06:05;;;;;;;0.00;0.00;;;29.90;44.90;;;;;;5085577;28;20202;-46
2024/01/08 08:08:36;;;;;;;0.00;0.00;;;29.80;44.90;;;;;;5088755;28;20194;-46
2024/01/08 08:11:09;;;;;;;0.00;0.00;;;29.70;44.90;;;;;;5087765;28;20217;-47
2024/01/08 08:13:40;;;;;;;0.00;0.00;;;29.70;45.00;;;;;;5086525;28;20193;-46
2024/01/08 08:16:11;;;;;;;0.00;0.00;;;29.70;45.10;;;;;;5087678;28;20229;-45
2024/01/08 08:18:42;;;;;;;0.00;0.00;;;29.70;45.20;;;;;;5088040;28;20198;-46
2024/01/08 08:21:13;;;;;;;0.00;0.00;;;29.60;45.20;;;;;;5087486;28;20198;-47
2024/01/08 08:23:44;;;;;;;0.00;0.00;;;29.60;45.30;;;;;;5087489;28;20677;-46
2024/01/08 08:26:17;;;;;;;0.00;0.00;;;29.60;45.30;;;;;;5086507;28;20190;-45
2024/01/08 08:28:47;;;;;;;0.00;0.00;;;29.60;45.40;;;;;;5099171;22;20603;-40
2024/01/08 08:31:18;;;;;;;0.00;0.00;;;29.60;45.40;;;;;;5087460;28;20595;-39
2024/01/08 08:33:49;;;;;;;0.00;0.00;;;29.50;45.40;;;;;;5087724;28;20198;-42
2024/01/08 08:36:19;;;;;;;0.00;0.00;;;29.50;45.40;;;;;;5087804;28;20221;-42
2024/01/08 08:38:50;;;;;;;0.00;0.00;;;29.50;45.40;;;;;;5087785;28;20209;-41
2024/01/08 08:41:23;;;;;;;0.00;0.00;;;29.50;45.40;;;;;;5086628;28;20194;-41
2024/01/08 08:43:54;;;;;;;0.00;0.00;;;29.40;45.30;;;;;;5066667;28;20209;-42
2024/01/08 08:46:25;;;;;;;0.00;0.00;;;29.50;45.30;;;;;;5081157;28;20530;-42
2024/01/08 08:48:56;;;;;;;0.00;0.00;;;29.40;45.20;;;;;;5087333;28;20200;-40
2024/01/08 08:51:26;;;;;;;0.00;0.00;;;29.40;45.10;;;;;;5087028;28;20637;-43
2024/01/08 08:53:59;;;;;;;0.00;0.00;;;29.40;45.10;;;;;;5087254;28;20205;-44
2024/01/08 08:56:32;;;;;;;0.00;0.00;;;29.40;45.10;;;;;;5086787;28;20225;-42
2024/01/08 08:59:04;;;;;;;0.00;0.00;;;29.30;44.90;;;;;;5086889;28;20256;-44
2024/01/08 09:01:35;;;;;;;0.00;0.00;;;29.30;44.90;;;;;;5088393;28;20248;-42
2024/01/08 09:04:05;;;;;;;0.00;0.00;;;29.30;44.80;;;;;;5086671;28;20198;-45
2024/01/08 09:06:36;;;;;;;0.00;0.00;;;29.20;44.80;;;;;;5087836;28;20216;-42
2024/01/08 09:09:08;;;;;;;0.00;0.00;;;29.20;44.80;;;;;;5067153;28;20221;-43
2024/01/08 09:11:41;;;;;;;0.00;0.00;;;29.10;44.70;;;;;;5081076;28;20194;-42
2024/01/08 09:14:12;;;;;;;0.00;0.00;;;29.10;44.80;;;;;;5087373;28;20202;-42
2024/01/08 09:16:42;;;;;;;0.00;0.00;;;29.10;44.80;;;;;;5090660;28;20218;-41
2024/01/08 09:19:13;;;;;;;0.00;0.00;;;29.10;44.90;;;;;;5088255;28;20244;-43
2024/01/08 09:21:48;;;;;;;0.00;0.00;;;29.10;44.80;;;;;;5090989;28;20190;-42
2024/01/08 09:24:18;;;;;;;0.00;0.00;;;29.10;44.90;;;;;;5090827;28;20198;-45
2024/01/08 09:26:51;;;;;;;0.00;0.00;;;29.00;44.80;;;;;;5090678;28;20198;-42
2024/01/08 09:29:22;;;;;;;0.00;0.00;;;29.00;44.80;;;;;;5091434;28;20229;-43
2024/01/08 09:32:24;;;;;;;0.00;0.00;;;29.00;44.90;;;;;;5090443;28;20194;-41
2024/01/08 09:35:11;;;;;;;0.00;0.00;;;28.90;44.80;;;;;;5090963;28;20229;-42
2024/01/08 09:37:42;;;;;;;0.00;0.00;;;28.90;44.80;;;;;;5090804;28;20194;-42
2024/01/08 09:40:14;;;;;;;0.00;0.00;;;28.90;44.70;;;;;;5090712;28;20260;-42
2024/01/08 09:42:46;;;;;;;0.00;0.00;;;28.90;44.70;;;;;;5089367;28;20199;-44
2024/01/08 09:45:24;;;;;;;0.00;0.00;;;28.80;44.60;;;;;;5090572;28;20206;-42
2024/01/08 09:47:56;;;;;;;0.00;0.00;;;28.80;44.60;;;;;;5090617;28;20212;-45
2024/01/08 09:50:28;;;;;;;0.00;0.00;;;28.80;44.60;;;;;;5090361;28;20217;-43
2024/01/08 09:53:00;;;;;;;0.00;0.00;;;28.70;44.60;;;;;;5090150;28;20205;-41
2024/01/08 09:55:31;;;;;;;0.00;0.00;;;28.70;44.60;;;;;;5090144;28;20275;-44
2024/01/08 09:58:06;;;;;;;0.00;0.00;;;28.70;44.60;;;;;;5089610;28;20202;-42
2024/01/08 10:00:36;;;;;;;0.00;0.00;;;28.70;44.60;;;;;;5083601;28;20253;-44
2024/01/08 10:03:07;;;;;;;0.00;0.00;;;28.60;44.50;;;;;;5090895;28;20206;-43
2024/01/08 10:05:38;;;;;;;0.00;0.00;;;28.60;44.60;;;;;;5089370;28;20194;-42
2024/01/08 10:08:09;;;;;;;0.00;0.00;;;28.50;44.60;;;;;;5090593;28;20206;-41
2024/01/08 10:10:41;;;;;;;0.00;0.00;;;28.50;44.60;;;;;;5089641;28;20712;-41
2024/01/08 10:13:14;;;;;;;0.00;0.00;;;28.50;44.70;;;;;;5089648;28;20205;-41
2024/01/08 10:15:50;;;;;;;0.00;0.00;;;28.50;44.70;;;;;;5089399;28;20214;-42
2024/01/08 10:18:21;;;;;;;0.00;0.00;;;28.40;44.60;;;;;;5089530;28;20202;-42
2024/01/08 10:20:52;;;;;;;0.00;0.00;;;28.40;44.60;;;;;;5089956;28;20210;-41
2024/01/08 10:23:28;;;;;;;0.00;0.00;;;28.40;44.60;;;;;;5089366;28;20496;-42
2024/01/08 10:25:59;;;;;;;0.00;0.00;;;28.30;45.00;;;;;;5086175;28;20589;-43
2024/01/08 10:28:37;;;;;;;0.00;0.00;;;28.40;44.40;;;;;;5088464;28;20212;-42
2024/01/08 10:31:10;;;;;;;0.00;0.00;;;28.30;44.30;;;;;;5090098;28;20225;-43
2024/01/08 10:33:41;;;;;;;0.00;0.00;;;28.30;44.20;;;;;;5089225;28;20579;-42
2024/01/08 10:36:11;;;;;;;0.00;0.00;;;28.30;44.70;;;;;;5089823;28;20222;-46
2024/01/08 10:38:44;;;;;;;0.00;0.00;;;28.20;44.00;;;;;;5089402;28;20578;-43
2024/01/08 10:41:15;;;;;;;0.00;0.00;;;28.20;43.90;;;;;;5089965;28;20221;-42
2024/01/08 10:43:47;;;;;;;0.00;0.00;;;28.10;43.80;;;;;;5089460;28;20194;-43
2024/01/08 10:46:18;;;;;;;0.00;0.00;;;28.10;43.70;;;;;;5088965;28;20205;-43
2024/01/08 10:48:50;;;;;;;0.00;0.00;;;28.10;43.70;;;;;;5089532;28;20209;-43
2024/01/08 10:51:21;;;;;;;0.00;0.00;;;28.10;43.60;;;;;;5088979;28;20194;-44
2024/01/08 10:53:53;;;;;;;0.00;0.00;;;28.10;43.60;;;;;;5089194;28;20202;-42
2024/01/08 10:56:27;;;;;;;0.00;0.00;;;28.00;43.40;;;;;;5088586;28;20230;-41
2024/01/08 10:59:06;;;;;;;0.00;0.00;;;28.00;43.50;;;;;;5089565;28;20202;-43
2024/01/08 11:01:37;;;;;;;0.00;0.00;;;28.00;43.40;;;;;;5088767;28;20201;-42
2024/01/08 11:04:09;;;;;;;0.00;0.00;;;27.90;43.40;;;;;;5089805;28;20202;-42
2024/01/08 11:06:43;;;;;;;0.00;0.00;;;27.80;43.40;;;;;;5089301;28;20556;-41
2024/01/08 11:09:27;;;;;;;0.00;0.00;;;27.90;43.40;;;;;;5077591;28;20596;-42
2024/01/08 11:11:57;;;;;;;0.00;0.00;;;27.80;43.40;;;;;;5088287;28;20186;-44
2024/01/08 11:14:31;;;;;;;0.00;0.00;;;27.80;43.30;;;;;;5079873;28;20208;-42
2024/01/08 11:17:02;;;;;;;0.00;0.00;;;27.80;43.40;;;;;;5079128;28;20585;-46
2024/01/08 11:19:33;;;;;;;0.00;0.00;;;27.80;43.40;;;;;;5088985;28;20303;-44
2024/01/08 11:22:15;;;;;;;0.00;0.00;;;27.70;43.40;;;;;;5089061;28;20285;-42
2024/01/08 11:24:46;;;;;;;0.00;0.00;;;27.70;43.40;;;;;;5068116;28;20236;-44
2024/01/08 11:27:18;;;;;;;0.00;0.00;;;27.70;43.30;;;;;;5080631;28;20194;-44
2024/01/08 11:30:00;;;;;;;0.00;0.00;;;27.70;43.30;;;;;;5091309;22;20233;-47
2024/01/08 11:33:12;;;;;;;0.00;0.00;;;27.70;43.40;;;;;;5068980;28;20228;-47
2024/01/08 11:35:46;;;;;;;0.00;0.00;;;27.60;43.30;;;;;;5068063;28;20234;-45
2024/01/08 11:38:28;;;;;;;0.00;0.00;;;27.60;43.20;;;;;;5068663;28;20618;-46
2024/01/08 11:40:59;;;;;;;0.00;0.00;;;27.60;43.20;;;;;;5068785;28;20276;-48
2024/01/08 11:43:31;;;;;;;0.00;0.00;;;27.60;43.30;;;;;;5068463;28;20199;-46
2024/01/08 11:46:05;;;;;;;0.00;0.00;;;27.50;43.30;;;;;;5068434;28;20681;-47
2024/01/08 11:48:35;;;;;;;0.00;0.00;;;27.50;43.30;;;;;;5088633;28;20201;-45
2024/01/08 11:51:07;;;;;;;0.00;0.00;;;27.50;43.20;;;;;;5079787;28;20219;-46
2024/01/08 11:53:39;;;;;;;0.00;0.00;;;27.40;43.10;;;;;;5070908;28;20627;-46
2024/01/08 11:56:10;;;;;;;0.00;0.00;;;27.40;43.10;;;;;;5069548;28;20732;-46
2024/01/08 11:58:40;;;;;;;0.00;0.00;;;27.40;43.10;;;;;;5088208;28;20198;-51
2024/01/08 12:01:21;;;;;;;0.00;0.00;;;27.40;43.10;;;;;;5073958;28;20221;-48
2024/01/08 12:03:52;;;;;;;0.00;0.00;;;27.40;43.00;;;;;;5071258;28;20479;-48
2024/01/08 12:06:22;;;;;;;0.00;0.00;;;27.30;42.90;;;;;;5071556;28;20205;-47
2024/01/08 12:08:56;;;;;;;0.00;0.00;;;27.30;43.00;;;;;;5089948;28;20209;-50
2024/01/08 12:11:27;;;;;;;0.00;0.00;;;27.30;42.90;;;;;;5091691;28;20209;-45
2024/01/08 12:13:57;;;;;;;0.00;0.00;;;27.30;43.00;;;;;;5091560;28;20206;-47
2024/01/08 12:16:30;;;;;;;0.00;0.00;;;27.30;42.90;;;;;;5091807;28;20221;-45
2024/01/08 12:19:03;;;;;;;0.00;0.00;;;27.20;42.80;;;;;;5091648;28;20201;-44
2024/01/08 12:21:34;;;;;;;0.00;0.00;;;27.20;42.80;;;;;;5067756;28;20194;-45
2024/01/08 12:24:05;;;;;;;0.00;0.00;;;27.20;42.80;;;;;;5062136;28;20244;-45
2024/01/08 12:26:37;;;;;;;0.00;0.00;;;27.20;42.80;;;;;;5061902;28;20187;-45
2024/01/08 12:29:09;;;;;;;0.00;0.00;;;27.10;42.80;;;;;;5079928;22;20660;-39
2024/01/08 12:31:43;;;;;;;0.00;0.00;;;27.10;42.80;;;;;;5091150;28;20197;-42
2024/01/08 12:34:14;;;;;;;0.00;0.00;;;27.10;43.40;;;;;;5091111;28;20198;-42
2024/01/08 12:36:45;;;;;;;0.00;0.00;;;27.00;42.70;;;;;;5084524;28;20213;-39
2024/01/08 12:39:17;;;;;;;0.00;0.00;;;27.00;42.70;;;;;;5092104;28;20247;-46
2024/01/08 12:41:48;;;;;;;0.00;0.00;;;27.00;42.80;;;;;;5088863;28;20190;-44
2024/01/08 12:44:19;;;;;;;0.00;0.00;;;27.00;42.70;;;;;;5090881;28;20259;-40
2024/01/08 12:46:51;;;;;;;0.00;0.00;;;27.00;42.80;;;;;;5088851;28;20231;-46
2024/01/08 12:49:22;;;;;;;0.00;0.00;;;27.00;42.80;;;;;;5091990;28;20210;-47
2024/01/08 12:51:53;;;;;;;0.00;0.00;;;27.00;42.90;;;;;;5094952;28;20207;-45
2024/01/08 12:54:23;;;;;;;0.00;0.00;;;27.00;42.90;;;;;;5095166;28;20198;-41
2024/01/08 12:56:54;;;;;;;0.00;0.00;;;27.00;43.00;;;;;;5094755;28;20218;-47
2024/01/08 12:59:27;;;;;;;0.00;0.00;;;26.90;42.90;;;;;;5095203;28;20596;-47
2024/01/08 13:02:00;;;;;;;0.00;0.00;;;26.90;43.00;;;;;;5095637;28;20642;-41
2024/01/08 13:04:31;;;;;;;0.00;0.00;;;26.90;43.00;;;;;;5095078;28;20646;-41
2024/01/08 13:07:02;;;;;;;0.00;0.00;;;26.80;42.90;;;;;;5098430;28;20214;-40
2024/01/08 13:09:32;;;;;;;0.00;0.00;;;26.90;43.10;;;;;;5115845;28;20684;-42
2024/01/08 13:12:04;;;;;;;0.00;0.00;;;26.80;43.00;;;;;;5115708;28;20388;-42
2024/01/08 13:14:35;;;;;;;0.00;0.00;;;26.80;43.00;;;;;;5115445;28;20199;-39